Time;durP1;ratioP1;P1;durP2;ratioP2;P2;SDS_P1;SDS_P2;PMS_P1;PMS_P2;Temp;Humidity;BMP_temperature;BMP_pressure;BME280_temperature;BME280_humidity;BME280_pressure;Samples;Min_cycle;Max_cycle;Signal;HPM_P1;HPM_P2
2023/06/13 00:04:05;;;;;;;2.90;2.60;;;22.00;17.80;;;;;;10450224;28;20223;-75
2023/06/13 00:09:10;;;;;;;2.53;2.40;;;21.90;18.10;;;;;;10464882;28;20309;-75
2023/06/13 00:14:16;;;;;;;3.03;2.70;;;21.80;18.10;;;;;;10460142;28;20298;-75
2023/06/13 00:19:19;;;;;;;5.60;2.50;;;21.80;18.20;;;;;;10464860;28;20220;-74
2023/06/13 00:24:24;;;;;;;2.80;2.60;;;21.70;18.30;;;;;;10475074;28;20232;-75
2023/06/13 00:29:27;;;;;;;3.60;2.53;;;21.60;18.50;;;;;;10462674;28;20315;-75
2023/06/13 00:34:30;;;;;;;4.23;2.80;;;21.50;18.40;;;;;;10462620;28;20220;-75
2023/06/13 00:39:35;;;;;;;5.57;2.73;;;21.50;18.50;;;;;;10458836;28;20262;-75
2023/06/13 00:44:38;;;;;;;3.70;2.87;;;21.40;18.70;;;;;;10465322;28;20231;-74
2023/06/13 00:49:42;;;;;;;3.20;2.90;;;21.30;18.60;;;;;;10460337;28;20231;-75
2023/06/13 00:54:47;;;;;;;3.20;2.87;;;21.20;18.80;;;;;;10458483;28;21064;-75
2023/06/13 00:59:50;;;;;;;2.73;2.53;;;21.10;19.10;;;;;;10468089;28;20307;-74
2023/06/13 01:04:53;;;;;;;3.33;3.03;;;21.00;18.90;;;;;;10471613;28;20616;-75
2023/06/13 01:09:58;;;;;;;3.57;2.60;;;20.90;18.90;;;;;;10457026;28;20232;-74
2023/06/13 01:15:08;;;;;;;3.00;2.80;;;20.80;19.30;;;;;;10465814;28;20221;-75
2023/06/13 01:20:16;;;;;;;3.17;2.87;;;20.70;19.40;;;;;;10455187;28;20303;-75
2023/06/13 01:25:30;;;;;;;4.93;3.20;;;20.60;19.20;;;;;;10458647;28;20225;-75
2023/06/13 01:30:35;;;;;;;3.37;3.07;;;20.50;19.70;;;;;;10459282;28;20229;-75
2023/06/13 01:35:39;;;;;;;3.10;2.80;;;20.40;19.50;;;;;;10459753;28;20779;-74
2023/06/13 01:40:42;;;;;;;3.83;2.63;;;20.40;19.30;;;;;;10460898;28;20840;-75
2023/06/13 01:45:48;;;;;;;5.03;3.07;;;20.20;19.30;;;;;;10463822;28;20347;-75
2023/06/13 01:51:01;;;;;;;3.20;2.90;;;20.20;19.60;;;;;;10458671;28;20228;-75
2023/06/13 01:56:09;;;;;;;2.90;2.70;;;20.10;20.00;;;;;;10461381;28;20576;-74
2023/06/13 02:01:14;;;;;;;2.83;2.53;;;20.00;19.70;;;;;;10460961;28;20240;-74
2023/06/13 02:06:18;;;;;;;2.80;2.60;;;19.90;19.90;;;;;;10458550;28;20255;-75
2023/06/13 02:11:21;;;;;;;3.00;2.80;;;19.90;19.80;;;;;;10459788;28;20232;-75
2023/06/13 02:16:29;;;;;;;2.90;2.70;;;19.80;20.00;;;;;;10463277;28;20714;-74
2023/06/13 02:21:32;;;;;;;3.23;2.90;;;19.70;20.10;;;;;;10463280;28;22250;-74
2023/06/13 02:26:39;;;;;;;4.53;2.80;;;19.60;20.00;;;;;;10464679;28;20264;-74
2023/06/13 02:31:45;;;;;;;2.93;2.63;;;19.50;20.10;;;;;;10453254;28;20811;-74
2023/06/13 02:36:48;;;;;;;3.00;2.80;;;19.40;20.40;;;;;;10460408;28;20223;-74
2023/06/13 02:41:51;;;;;;;3.07;2.67;;;19.30;20.30;;;;;;10466895;28;20244;-74
2023/06/13 02:46:56;;;;;;;3.10;2.80;;;19.20;20.30;;;;;;10449217;28;20838;-74
2023/06/13 02:51:59;;;;;;;3.03;2.73;;;19.10;20.60;;;;;;10461194;28;20307;-74
2023/06/13 02:57:02;;;;;;;3.20;2.67;;;19.00;20.40;;;;;;10470225;28;20228;-74
2023/06/13 03:02:07;;;;;;;3.07;2.87;;;18.90;20.50;;;;;;10454205;28;20221;-74
2023/06/13 03:07:16;;;;;;;4.57;3.20;;;18.80;20.80;;;;;;10451416;28;20606;-74
2023/06/13 03:12:19;;;;;;;2.90;2.70;;;18.60;20.50;;;;;;10456288;28;20216;-74
2023/06/13 03:17:24;;;;;;;3.83;3.03;;;18.50;20.70;;;;;;10459912;28;20234;-74
2023/06/13 03:22:28;;;;;;;2.90;2.70;;;18.30;21.00;;;;;;10455120;28;20776;-74
2023/06/13 03:27:31;;;;;;;3.00;2.80;;;18.20;20.80;;;;;;10457826;28;20232;-74
2023/06/13 03:32:36;;;;;;;3.30;3.00;;;18.10;21.00;;;;;;10452165;28;20260;-74
2023/06/13 03:37:40;;;;;;;3.60;3.00;;;18.00;21.30;;;;;;10461922;28;20221;-74
2023/06/13 03:42:43;;;;;;;3.40;3.10;;;17.90;21.10;;;;;;10462326;28;20230;-74
2023/06/13 03:47:47;;;;;;;3.20;3.00;;;17.80;21.10;;;;;;10459559;28;20772;-74
2023/06/13 03:52:51;;;;;;;3.53;3.23;;;17.70;21.50;;;;;;10465333;28;20236;-74
2023/06/13 03:57:54;;;;;;;3.97;3.50;;;17.50;21.30;;;;;;10470267;28;20225;-74
2023/06/13 04:03:00;;;;;;;3.20;2.90;;;17.40;21.50;;;;;;10466054;28;20227;-74
2023/06/13 04:08:08;;;;;;;3.33;3.03;;;17.40;21.90;;;;;;10468625;28;20229;-74
2023/06/13 04:13:11;;;;;;;3.83;3.20;;;17.30;22.50;;;;;;10463099;28;20252;-74
2023/06/13 04:18:17;;;;;;;4.83;3.40;;;17.30;22.00;;;;;;10462494;28;20762;-73
2023/06/13 04:23:20;;;;;;;6.00;3.20;;;17.20;22.50;;;;;;10463607;28;20671;-73
2023/06/13 04:28:24;;;;;;;3.63;3.30;;;17.20;22.20;;;;;;10459344;28;20235;-73
2023/06/13 04:33:29;;;;;;;4.43;3.30;;;17.10;22.40;;;;;;10467655;28;20229;-74
2023/06/13 04:38:34;;;;;;;3.63;3.27;;;17.10;23.10;;;;;;10460607;28;20252;-74
2023/06/13 04:43:38;;;;;;;4.17;3.20;;;17.10;23.00;;;;;;10458455;28;20286;-75
2023/06/13 04:48:43;;;;;;;3.77;3.00;;;17.20;23.40;;;;;;10459183;28;20224;-74
2023/06/13 04:53:49;;;;;;;3.37;3.07;;;17.20;23.40;;;;;;10455139;28;20224;-74
2023/06/13 04:58:53;;;;;;;3.30;3.00;;;17.30;23.50;;;;;;10459632;28;20224;-75
2023/06/13 05:03:57;;;;;;;3.23;2.93;;;17.40;23.60;;;;;;10462861;28;20229;-74
2023/06/13 05:09:05;;;;;;;3.57;3.23;;;17.50;23.60;;;;;;10448334;28;20221;-71
2023/06/13 05:14:09;;;;;;;3.40;3.10;;;17.50;23.60;;;;;;10449553;28;20224;-71
2023/06/13 05:19:14;;;;;;;3.77;3.10;;;17.60;23.70;;;;;;10452498;28;20282;-70
2023/06/13 05:24:18;;;;;;;3.50;2.57;;;17.80;23.80;;;;;;10452933;28;20712;-70
2023/06/13 05:29:21;;;;;;;3.00;2.80;;;17.90;23.90;;;;;;10447974;28;20240;-70
2023/06/13 05:34:26;;;;;;;2.83;2.50;;;18.10;23.60;;;;;;10456126;28;20235;-70
2023/06/13 05:39:30;;;;;;;3.00;2.80;;;18.20;23.60;;;;;;10455836;28;20232;-70
2023/06/13 05:44:33;;;;;;;3.30;2.57;;;18.30;23.30;;;;;;10449450;28;20740;-70
2023/06/13 05:49:37;;;;;;;3.80;2.70;;;18.50;23.30;;;;;;10448931;28;20224;-70
2023/06/13 05:54:40;;;;;;;4.37;2.83;;;18.60;23.20;;;;;;10453666;28;20307;-70
2023/06/13 05:59:44;;;;;;;5.73;2.93;;;18.80;23.00;;;;;;10450943;28;20235;-70
2023/06/13 06:04:48;;;;;;;2.80;2.60;;;18.90;22.80;;;;;;10459214;28;20228;-69
2023/06/13 06:09:51;;;;;;;2.87;2.67;;;19.10;22.80;;;;;;10464188;28;20231;-70
2023/06/13 06:14:55;;;;;;;4.43;2.50;;;19.30;22.40;;;;;;10467808;28;20345;-70
2023/06/13 06:19:59;;;;;;;3.47;2.40;;;19.40;22.20;;;;;;10459483;28;20220;-72
2023/06/13 06:25:03;;;;;;;2.97;2.33;;;19.50;22.00;;;;;;10460180;28;20315;-71
2023/06/13 06:30:07;;;;;;;2.60;2.33;;;19.70;22.00;;;;;;10455354;28;20278;-74
2023/06/13 06:35:13;;;;;;;2.43;2.23;;;19.90;21.60;;;;;;10455230;28;20234;-72
2023/06/13 06:40:18;;;;;;;3.80;2.57;;;20.00;21.40;;;;;;10446769;28;20229;-72
2023/06/13 06:45:22;;;;;;;2.40;2.20;;;20.10;21.10;;;;;;10454205;28;20256;-72
2023/06/13 06:50:26;;;;;;;2.20;2.10;;;20.20;21.00;;;;;;10457188;28;20762;-74
2023/06/13 06:55:29;;;;;;;3.63;2.47;;;20.30;20.80;;;;;;10448425;28;20314;-71
2023/06/13 07:00:32;;;;;;;3.30;2.37;;;20.50;20.60;;;;;;10454268;28;20224;-73
2023/06/13 07:05:37;;;;;;;2.10;2.00;;;20.60;20.50;;;;;;10453616;28;20224;-73
2023/06/13 07:10:41;;;;;;;5.40;2.43;;;20.70;20.10;;;;;;10450819;28;20223;-71
2023/06/13 07:15:44;;;;;;;3.90;2.20;;;20.80;19.90;;;;;;10449231;28;21002;-72
2023/06/13 07:20:48;;;;;;;3.30;2.60;;;20.90;19.70;;;;;;10452579;28;20231;-71
2023/06/13 07:25:52;;;;;;;2.30;2.20;;;21.00;19.40;;;;;;10460502;28;20225;-74
2023/06/13 07:30:57;;;;;;;2.50;2.30;;;21.10;19.40;;;;;;10458166;28;20303;-72
2023/06/13 07:36:02;;;;;;;2.60;2.40;;;21.20;19.50;;;;;;10463965;28;20228;-72
2023/06/13 07:41:06;;;;;;;3.07;2.10;;;21.30;19.20;;;;;;10466788;28;20218;-72
2023/06/13 07:46:09;;;;;;;3.67;2.50;;;21.40;19.60;;;;;;10461198;28;20224;-72
2023/06/13 07:51:15;;;;;;;3.80;2.70;;;21.50;19.20;;;;;;10464869;28;20307;-73
2023/06/13 07:56:18;;;;;;;2.50;2.30;;;21.60;18.50;;;;;;10461263;28;20859;-71
2023/06/13 08:01:22;;;;;;;4.83;2.30;;;21.90;18.70;;;;;;10466159;28;21313;-74
2023/06/13 08:06:26;;;;;;;3.43;2.60;;;22.00;18.60;;;;;;10461158;28;20752;-72
2023/06/13 08:11:30;;;;;;;2.47;2.27;;;22.10;18.00;;;;;;10460428;28;20248;-72
2023/06/13 08:16:33;;;;;;;6.73;2.77;;;22.30;18.40;;;;;;10463650;28;20762;-71
2023/06/13 08:21:37;;;;;;;2.67;2.47;;;22.40;18.10;;;;;;10464094;28;20225;-73
2023/06/13 08:26:41;;;;;;;2.33;2.13;;;22.50;17.90;;;;;;10469515;28;20708;-72
2023/06/13 08:31:44;;;;;;;3.47;2.37;;;22.70;18.10;;;;;;10461365;28;20697;-72
2023/06/13 08:36:53;;;;;;;2.67;2.47;;;22.80;17.80;;;;;;10455894;28;20220;-72
2023/06/13 08:41:57;;;;;;;2.60;2.43;;;23.00;17.20;;;;;;10462420;28;20271;-71
2023/06/13 08:47:00;;;;;;;2.60;2.40;;;23.20;17.60;;;;;;10462709;28;20307;-72
2023/06/13 08:52:11;;;;;;;3.57;2.00;;;23.30;17.40;;;;;;10460434;28;20723;-72
2023/06/13 08:57:17;;;;;;;2.57;2.37;;;23.50;17.00;;;;;;10453782;28;20225;-74
2023/06/13 09:02:21;;;;;;;3.07;2.73;;;23.70;17.00;;;;;;10455362;28;20315;-73
2023/06/13 09:07:26;;;;;;;2.73;2.43;;;23.80;17.00;;;;;;10464535;28;20251;-72
2023/06/13 09:12:33;;;;;;;2.53;2.33;;;24.00;16.50;;;;;;10456370;28;20225;-72
2023/06/13 09:17:37;;;;;;;3.33;2.60;;;24.10;16.50;;;;;;10453329;28;20821;-71
2023/06/13 09:22:43;;;;;;;2.60;2.40;;;24.30;16.40;;;;;;10458043;28;20221;-73
2023/06/13 09:27:46;;;;;;;3.60;2.30;;;24.30;15.70;;;;;;10456498;28;20350;-73
2023/06/13 09:32:51;;;;;;;2.70;2.50;;;24.50;16.30;;;;;;10463215;28;20256;-73
2023/06/13 09:37:57;;;;;;;2.63;2.40;;;24.60;16.30;;;;;;10459682;28;20275;-72
2023/06/13 09:43:02;;;;;;;2.50;2.30;;;24.70;15.50;;;;;;10463156;28;20583;-73
2023/06/13 09:48:07;;;;;;;2.53;2.30;;;24.90;16.20;;;;;;10450801;28;20235;-73
2023/06/13 09:53:12;;;;;;;2.50;2.30;;;25.00;16.10;;;;;;10457323;28;20228;-72
2023/06/13 09:58:16;;;;;;;2.50;2.30;;;25.20;15.70;;;;;;10455709;28;20664;-73
2023/06/13 10:03:34;;;;;;;2.70;2.50;;;25.40;15.60;;;;;;10459125;28;20247;-73
2023/06/13 10:08:40;;;;;;;3.20;2.77;;;25.50;15.30;;;;;;10462119;28;20217;-72
2023/06/13 10:13:48;;;;;;;2.80;2.40;;;25.60;14.60;;;;;;10447208;28;21376;-75
2023/06/13 10:18:54;;;;;;;3.20;2.33;;;25.60;14.10;;;;;;10443079;28;20220;-73
2023/06/13 10:24:00;;;;;;;2.80;2.53;;;25.60;14.40;;;;;;10442058;28;20691;-73
2023/06/13 10:29:39;;;;;;;2.33;2.13;;;25.70;14.40;;;;;;10455875;28;20217;-73
2023/06/13 10:35:16;;;;;;;2.60;2.20;;;25.80;13.40;;;;;;10413616;28;20228;-73
2023/06/13 10:40:34;;;;;;;2.77;2.43;;;25.90;13.70;;;;;;10410116;28;20294;-74
2023/06/13 10:45:40;;;;;;;2.50;2.30;;;26.00;13.60;;;;;;10404638;28;20824;-72
2023/06/13 10:50:44;;;;;;;4.00;2.33;;;26.10;13.90;;;;;;10406639;28;20253;-73
2023/06/13 10:55:50;;;;;;;2.70;2.50;;;26.20;14.10;;;;;;10412202;28;20229;-73
2023/06/13 11:00:53;;;;;;;2.90;2.60;;;26.20;14.00;;;;;;10403627;28;20225;-73
2023/06/13 11:05:57;;;;;;;2.33;2.17;;;26.30;14.30;;;;;;10403941;28;20340;-76
2023/06/13 11:11:03;;;;;;;4.43;2.50;;;26.40;14.20;;;;;;10406185;28;20225;-72
2023/06/13 11:16:20;;;;;;;2.57;2.37;;;26.40;13.80;;;;;;10398274;28;20235;-73
2023/06/13 11:21:23;;;;;;;2.80;2.60;;;26.50;13.30;;;;;;10400137;28;21007;-74
2023/06/13 11:26:28;;;;;;;2.87;2.60;;;26.70;13.80;;;;;;10426669;28;20232;-73
2023/06/13 11:31:31;;;;;;;2.47;2.30;;;26.80;13.40;;;;;;10448172;28;20717;-73
2023/06/13 11:36:41;;;;;;;3.00;2.80;;;26.80;13.20;;;;;;10460007;28;20730;-74
2023/06/13 11:41:46;;;;;;;2.93;2.50;;;26.90;12.80;;;;;;10453254;28;20233;-74
2023/06/13 11:46:50;;;;;;;3.17;2.60;;;26.90;12.90;;;;;;10441248;28;20228;-73
2023/06/13 11:51:54;;;;;;;2.50;2.30;;;27.00;13.20;;;;;;10451832;28;20254;-73
2023/06/13 11:56:58;;;;;;;3.10;2.40;;;27.00;13.10;;;;;;10443162;28;20236;-74
2023/06/13 12:02:01;;;;;;;2.67;2.13;;;27.10;13.10;;;;;;10443227;28;20271;-74
2023/06/13 12:07:07;;;;;;;2.70;2.50;;;27.20;13.10;;;;;;10449693;28;20232;-74
2023/06/13 12:12:12;;;;;;;2.80;2.50;;;27.20;12.50;;;;;;10450413;28;20801;-73
2023/06/13 12:17:15;;;;;;;2.50;2.30;;;27.30;12.30;;;;;;10454036;28;20308;-74
2023/06/13 12:22:18;;;;;;;2.80;2.60;;;27.30;12.40;;;;;;10448483;28;20225;-74
2023/06/13 12:27:25;;;;;;;3.23;2.70;;;27.40;12.30;;;;;;10449511;28;20256;-73
2023/06/13 12:32:29;;;;;;;3.23;2.60;;;27.40;11.20;;;;;;10456090;28;20235;-73
2023/06/13 12:37:34;;;;;;;2.63;2.43;;;27.40;11.70;;;;;;10453289;28;20231;-72
2023/06/13 12:42:42;;;;;;;2.63;2.43;;;27.40;11.90;;;;;;10466402;28;20243;-73
2023/06/13 12:47:46;;;;;;;5.27;2.67;;;27.50;11.70;;;;;;10463537;28;20293;-73
2023/06/13 12:52:49;;;;;;;2.70;2.50;;;27.60;11.60;;;;;;10460714;28;20225;-73
2023/06/13 12:57:56;;;;;;;2.77;2.57;;;27.60;11.40;;;;;;10462624;28;20235;-73
2023/06/13 13:02:59;;;;;;;3.50;2.73;;;27.60;11.00;;;;;;10465051;28;20322;-72
2023/06/13 13:08:03;;;;;;;2.90;2.70;;;27.70;11.20;;;;;;10410694;28;20221;-71
2023/06/13 13:13:07;;;;;;;2.80;2.57;;;27.70;11.20;;;;;;10410975;28;20749;-73
2023/06/13 13:18:11;;;;;;;2.50;2.30;;;27.80;10.60;;;;;;10408203;28;20210;-69
2023/06/13 13:23:15;;;;;;;4.00;2.83;;;27.80;10.70;;;;;;10452114;28;20220;-69
2023/06/13 13:28:19;;;;;;;2.60;2.40;;;27.80;10.50;;;;;;10449044;28;20291;-73
2023/06/13 13:33:25;;;;;;;2.40;2.20;;;27.80;10.70;;;;;;10458862;28;20232;-69
2023/06/13 13:38:28;;;;;;;3.03;2.70;;;27.80;11.00;;;;;;10453269;28;20255;-68
2023/06/13 13:43:33;;;;;;;3.57;2.80;;;27.90;10.70;;;;;;10457104;28;20235;-69
2023/06/13 13:48:38;;;;;;;3.53;2.50;;;27.90;10.60;;;;;;10459961;28;20831;-69
2023/06/13 13:53:42;;;;;;;3.00;2.80;;;27.90;11.00;;;;;;10455585;28;20762;-73
2023/06/13 13:58:46;;;;;;;2.90;2.70;;;28.00;10.80;;;;;;10451623;28;20225;-73
2023/06/13 14:03:50;;;;;;;3.77;2.90;;;28.00;10.30;;;;;;10457368;28;20235;-73
2023/06/13 14:08:53;;;;;;;2.93;2.73;;;28.00;10.40;;;;;;10453163;28;20297;-73
2023/06/13 14:14:04;;;;;;;3.40;2.80;;;28.00;10.10;;;;;;10463398;28;20888;-73
2023/06/13 14:19:07;;;;;;;2.90;2.70;;;28.10;9.60;;;;;;10458573;28;20223;-73
2023/06/13 14:24:11;;;;;;;2.47;2.27;;;28.20;10.00;;;;;;10456371;28;20308;-73
2023/06/13 14:29:16;;;;;;;2.53;2.43;;;28.20;9.90;;;;;;10449007;28;20774;-73
2023/06/13 14:34:19;;;;;;;3.97;2.67;;;28.30;9.60;;;;;;10456806;28;20311;-73
2023/06/13 14:39:22;;;;;;;2.80;2.60;;;28.30;9.90;;;;;;10460634;28;20349;-73
2023/06/13 14:44:27;;;;;;;2.90;2.70;;;28.30;9.60;;;;;;10451472;28;20232;-73
2023/06/13 14:49:30;;;;;;;3.20;2.90;;;28.30;9.60;;;;;;10462050;28;20227;-73
2023/06/13 14:54:33;;;;;;;2.83;2.63;;;28.30;9.60;;;;;;10461646;28;20307;-73
2023/06/13 14:59:38;;;;;;;2.87;2.67;;;28.30;9.60;;;;;;10461633;28;20224;-73
2023/06/13 15:04:41;;;;;;;2.97;2.70;;;28.20;9.60;;;;;;10455918;28;21031;-73
2023/06/13 15:09:45;;;;;;;2.70;2.50;;;28.20;9.60;;;;;;10453164;28;20221;-73
2023/06/13 15:14:49;;;;;;;3.63;2.53;;;28.30;9.70;;;;;;10452650;28;20322;-73
2023/06/13 15:19:52;;;;;;;4.37;2.57;;;28.40;9.60;;;;;;10451988;28;20892;-69
2023/06/13 15:24:56;;;;;;;3.30;3.00;;;28.40;9.70;;;;;;10451664;28;20708;-69
2023/06/13 15:30:00;;;;;;;2.80;2.60;;;28.50;9.30;;;;;;10451951;28;20229;-69
2023/06/13 15:35:04;;;;;;;3.63;2.60;;;28.50;9.30;;;;;;10455530;28;20217;-69
2023/06/13 15:40:08;;;;;;;2.60;2.40;;;28.50;9.80;;;;;;10459726;28;20225;-73
2023/06/13 15:45:13;;;;;;;4.60;2.37;;;28.50;9.80;;;;;;10455680;28;20235;-73
2023/06/13 15:50:16;;;;;;;2.73;2.50;;;28.50;9.80;;;;;;10457200;28;20251;-73
2023/06/13 15:55:20;;;;;;;3.37;2.77;;;28.50;9.80;;;;;;10466176;28;20759;-73
2023/06/13 16:00:24;;;;;;;4.57;2.70;;;28.50;9.80;;;;;;10460044;28;20248;-71
2023/06/13 16:05:28;;;;;;;3.50;2.60;;;28.50;9.80;;;;;;10463613;28;20310;-71
2023/06/13 16:10:32;;;;;;;2.77;2.43;;;28.50;9.80;;;;;;10463718;28;20643;-71
2023/06/13 16:15:36;;;;;;;2.43;2.23;;;28.50;10.40;;;;;;10431839;28;20798;-74
2023/06/13 16:20:39;;;;;;;3.57;2.60;;;28.60;9.80;;;;;;10447232;28;20228;-74
2023/06/13 16:25:42;;;;;;;2.80;2.60;;;28.60;9.80;;;;;;10464881;28;20228;-74
2023/06/13 16:30:47;;;;;;;4.00;2.80;;;28.60;9.80;;;;;;10460087;28;20233;-74
2023/06/13 16:35:50;;;;;;;3.17;2.87;;;28.60;9.30;;;;;;10454185;28;20224;-74
2023/06/13 16:40:53;;;;;;;3.87;2.70;;;28.60;9.80;;;;;;10450855;28;20223;-74
2023/06/13 16:45:59;;;;;;;2.50;2.30;;;28.60;9.50;;;;;;10461015;28;20229;-74
2023/06/13 16:51:02;;;;;;;4.03;2.40;;;28.60;9.40;;;;;;10455298;28;20216;-74
2023/06/13 16:56:06;;;;;;;2.90;2.70;;;28.60;9.80;;;;;;10458339;28;20225;-74
2023/06/13 17:01:10;;;;;;;4.00;2.80;;;28.60;9.50;;;;;;10476979;28;20736;-74
2023/06/13 17:06:13;;;;;;;3.07;2.60;;;28.50;9.20;;;;;;10462135;28;20771;-74
2023/06/13 17:11:17;;;;;;;2.70;2.50;;;28.50;9.30;;;;;;10470564;28;20804;-75
2023/06/13 17:16:21;;;;;;;2.90;2.70;;;28.30;9.30;;;;;;10467735;28;20224;-75
2023/06/13 17:21:25;;;;;;;2.80;2.60;;;28.40;9.60;;;;;;10458877;28;20327;-74
2023/06/13 17:26:29;;;;;;;3.93;2.60;;;28.40;9.70;;;;;;10462389;28;20235;-71
2023/06/13 17:31:33;;;;;;;2.60;2.40;;;28.40;9.30;;;;;;10455678;28;20228;-72
2023/06/13 17:36:36;;;;;;;3.10;2.80;;;28.40;9.00;;;;;;10450583;28;20221;-71
2023/06/13 17:41:40;;;;;;;2.93;2.73;;;28.30;9.10;;;;;;10456198;28;20316;-70
2023/06/13 17:46:44;;;;;;;2.80;2.60;;;28.20;9.00;;;;;;10453788;28;20220;-70
2023/06/13 17:51:48;;;;;;;3.00;2.80;;;28.10;8.90;;;;;;10451377;28;20310;-71
2023/06/13 17:56:51;;;;;;;2.80;2.60;;;28.00;9.30;;;;;;10452571;28;20744;-70
2023/06/13 18:01:56;;;;;;;3.83;2.57;;;27.90;9.40;;;;;;10453003;28;20880;-70
2023/06/13 18:06:59;;;;;;;7.43;2.83;;;27.80;9.40;;;;;;10456608;28;20221;-70
2023/06/13 18:12:03;;;;;;;3.90;2.63;;;27.80;9.40;;;;;;10449676;28;20220;-70
2023/06/13 18:17:24;;;;;;;4.23;2.73;;;27.70;9.30;;;;;;10456141;28;20232;-70
2023/06/13 18:22:27;;;;;;;2.80;2.60;;;27.60;9.30;;;;;;10453961;28;20235;-69
2023/06/13 18:27:31;;;;;;;2.60;2.40;;;27.60;9.30;;;;;;10452364;28;20217;-70
2023/06/13 18:32:35;;;;;;;2.87;2.57;;;27.50;9.20;;;;;;10456986;28;20231;-70
2023/06/13 18:37:39;;;;;;;4.00;2.90;;;27.40;9.20;;;;;;10451454;28;20357;-68
2023/06/13 18:42:45;;;;;;;2.57;2.37;;;27.30;9.50;;;;;;10455169;28;20228;-70
2023/06/13 18:47:51;;;;;;;2.80;2.60;;;27.20;9.50;;;;;;10454982;28;20220;-70
2023/06/13 18:53:02;;;;;;;2.93;2.73;;;27.10;9.70;;;;;;10450557;28;20682;-70
2023/06/13 18:58:05;;;;;;;3.30;2.70;;;27.00;9.90;;;;;;10451665;28;20308;-68
2023/06/13 19:03:12;;;;;;;3.00;2.70;;;26.90;10.00;;;;;;10460216;28;20308;-70
2023/06/13 19:08:15;;;;;;;3.10;2.60;;;26.80;10.00;;;;;;10463304;28;20305;-70
2023/06/13 19:13:21;;;;;;;2.90;2.70;;;26.70;10.10;;;;;;10461001;28;20264;-70
2023/06/13 19:18:25;;;;;;;2.73;2.50;;;26.60;10.40;;;;;;10469729;28;20310;-69
2023/06/13 19:23:29;;;;;;;2.97;2.70;;;26.60;10.60;;;;;;10466611;28;20374;-69
2023/06/13 19:28:33;;;;;;;2.97;2.77;;;26.50;10.60;;;;;;10469515;28;20213;-69
2023/06/13 19:33:37;;;;;;;3.07;2.77;;;26.30;10.70;;;;;;10471084;28;20715;-70
2023/06/13 19:38:41;;;;;;;3.07;2.70;;;26.20;11.00;;;;;;10470669;28;20760;-70
2023/06/13 19:43:44;;;;;;;2.67;2.47;;;26.10;11.10;;;;;;10467563;28;20224;-70
2023/06/13 19:48:49;;;;;;;2.80;2.60;;;25.90;11.10;;;;;;10469117;28;20692;-70
2023/06/13 19:53:52;;;;;;;2.90;2.70;;;25.80;11.20;;;;;;10467880;28;20227;-70
2023/06/13 19:58:56;;;;;;;3.40;3.10;;;25.70;11.20;;;;;;10468471;28;20235;-71
2023/06/13 20:04:01;;;;;;;3.17;2.93;;;25.50;11.10;;;;;;10465686;28;20962;-70
2023/06/13 20:09:05;;;;;;;3.30;2.87;;;25.30;11.30;;;;;;10468046;28;21067;-70
2023/06/13 20:14:10;;;;;;;3.00;2.80;;;25.20;11.60;;;;;;10461186;28;20235;-70
2023/06/13 20:19:14;;;;;;;3.07;2.77;;;24.90;12.30;;;;;;10460435;28;20239;-70
2023/06/13 20:24:17;;;;;;;3.03;2.70;;;24.80;12.10;;;;;;10451889;28;20236;-70
2023/06/13 20:29:21;;;;;;;4.00;2.53;;;24.70;12.00;;;;;;10456417;28;20233;-69
2023/06/13 20:34:25;;;;;;;3.10;2.77;;;24.50;12.20;;;;;;10461251;28;20236;-70
2023/06/13 20:39:28;;;;;;;3.97;2.80;;;24.50;12.80;;;;;;10459563;28;20230;-69
2023/06/13 20:44:32;;;;;;;3.60;3.03;;;24.30;12.60;;;;;;10421036;28;20233;-70
2023/06/13 20:49:37;;;;;;;3.03;2.80;;;24.20;12.60;;;;;;10415524;28;20225;-68
2023/06/13 20:54:41;;;;;;;5.00;3.10;;;24.00;12.60;;;;;;10420997;28;20247;-69
2023/06/13 20:59:44;;;;;;;3.10;2.83;;;23.80;12.50;;;;;;10414813;28;20648;-70
2023/06/13 21:04:50;;;;;;;3.93;2.57;;;23.60;12.70;;;;;;10444037;28;20766;-67
2023/06/13 21:09:53;;;;;;;2.97;2.77;;;23.30;13.00;;;;;;10458234;28;20225;-70
2023/06/13 21:14:56;;;;;;;3.53;3.23;;;23.10;12.90;;;;;;10455212;28;20235;-69
2023/06/13 21:20:01;;;;;;;3.90;3.13;;;22.90;13.10;;;;;;10457695;28;20235;-69
2023/06/13 21:25:07;;;;;;;3.97;3.20;;;22.40;13.70;;;;;;10459650;28;20251;-68
2023/06/13 21:30:12;;;;;;;3.77;3.17;;;21.90;14.10;;;;;;10450089;28;20224;-69
2023/06/13 21:35:18;;;;;;;3.23;2.93;;;21.60;14.20;;;;;;10458223;28;20228;-69
2023/06/13 21:40:22;;;;;;;4.27;3.00;;;21.50;14.60;;;;;;10450827;28;20228;-69
2023/06/13 21:45:25;;;;;;;4.10;2.80;;;21.40;14.70;;;;;;10453741;28;20958;-67
2023/06/13 21:50:36;;;;;;;2.70;2.50;;;21.40;15.00;;;;;;10455008;28;20851;-69
2023/06/13 21:55:40;;;;;;;2.57;2.37;;;21.50;15.50;;;;;;10453160;28;20233;-69
2023/06/13 22:00:44;;;;;;;2.90;2.70;;;21.50;15.10;;;;;;10455075;28;20216;-69
2023/06/13 22:05:48;;;;;;;4.20;3.33;;;21.50;15.30;;;;;;10455547;28;20235;-69
2023/06/13 22:10:52;;;;;;;2.90;2.70;;;21.40;15.30;;;;;;10453921;28;20217;-68
2023/06/13 22:15:55;;;;;;;3.40;2.87;;;21.40;15.10;;;;;;10453543;28;20238;-69
2023/06/13 22:21:00;;;;;;;3.27;2.97;;;21.40;15.60;;;;;;10450901;28;20763;-73
2023/06/13 22:26:03;;;;;;;3.03;2.83;;;21.40;16.00;;;;;;10453794;28;20239;-72
2023/06/13 22:31:08;;;;;;;3.33;3.03;;;21.30;15.60;;;;;;10444591;28;20932;-73
2023/06/13 22:36:12;;;;;;;2.83;2.60;;;21.30;16.00;;;;;;10438725;28;20324;-73
2023/06/13 22:41:16;;;;;;;2.40;2.30;;;21.20;16.00;;;;;;10437315;28;20234;-74
2023/06/13 22:46:19;;;;;;;3.60;2.70;;;21.10;15.90;;;;;;10455321;28;20626;-73
2023/06/13 22:51:25;;;;;;;3.37;3.00;;;21.00;15.80;;;;;;10464410;28;20238;-73
2023/06/13 22:56:28;;;;;;;2.90;2.70;;;20.90;15.80;;;;;;10462051;28;20661;-72
2023/06/13 23:01:32;;;;;;;3.90;3.50;;;20.80;15.70;;;;;;10450896;28;20259;-73
2023/06/13 23:06:37;;;;;;;3.40;3.10;;;20.70;15.90;;;;;;10456950;28;20404;-74
2023/06/13 23:11:40;;;;;;;3.70;3.40;;;20.60;16.40;;;;;;10450760;28;20224;-73
2023/06/13 23:16:44;;;;;;;3.50;3.20;;;20.60;16.30;;;;;;10448523;28;20235;-72
2023/06/13 23:21:49;;;;;;;3.53;3.23;;;20.50;16.30;;;;;;10448975;28;20938;-73
2023/06/13 23:26:53;;;;;;;3.43;3.13;;;20.40;16.70;;;;;;10456245;28;20307;-73
2023/06/13 23:31:56;;;;;;;3.20;2.90;;;20.20;16.20;;;;;;10446262;28;20220;-72
2023/06/13 23:37:01;;;;;;;3.43;3.13;;;20.10;16.20;;;;;;10440605;28;20220;-72
2023/06/13 23:42:05;;;;;;;2.80;2.60;;;19.90;16.80;;;;;;10403513;28;20294;-74
2023/06/13 23:47:09;;;;;;;3.23;2.93;;;19.70;16.60;;;;;;10404000;28;20243;-74
2023/06/13 23:52:14;;;;;;;3.60;3.30;;;19.60;16.90;;;;;;10408381;28;20320;-72
2023/06/13 23:57:17;;;;;;;3.50;3.20;;;19.50;17.30;;;;;;10407527;28;20228;-73
